This is the latest recevied weather packets stored in our database for station/object KB4NWJ. If no packets are shown the sender has not sent any weather packets the latest 1 day(s).
| Time | Temp. | Humidity | Pressure | Rain* | Wind** | Luminosity | Snow |
|---|---|---|---|---|---|---|---|
| 1777989558 | 20.56° C | 66% | 1017.2 hPa | 0 mm | 0.89 m/s, 262° | 592 W/m² | - |
| 1777989255 | 19.44° C | 69% | 1017.1 hPa | 0 mm | 0 m/s | 543 W/m² | - |
| 1777988951 | 19.44° C | 68% | 1016.9 hPa | 0 mm | 0.89 m/s, 250° | 572 W/m² | - |
| 1777988648 | 19.44° C | 71% | 1017 hPa | 0 mm | 0.45 m/s, 285° | 534 W/m² | - |
| 1777988344 | 19.44° C | 71% | 1017 hPa | 0 mm | 0 m/s | 484 W/m² | - |
| 1777988041 | 17.78° C | 74% | 1016.9 hPa | 0 mm | 0.45 m/s, 265° | 372 W/m² | - |
| 1777987736 | 17.22° C | 75% | 1016.8 hPa | 0 mm | 0.45 m/s, 280° | 441 W/m² | - |
| 1777987434 | 17.22° C | 76% | 1016.6 hPa | 0 mm | 0.45 m/s, 266° | 429 W/m² | - |
| 1777987131 | 17.22° C | 76% | 1016.6 hPa | 0 mm | 0.45 m/s, 263° | 392 W/m² | - |
| 1777986828 | 16.67° C | 76% | 1016.7 hPa | 0 mm | 0.45 m/s, 260° | 359 W/m² | - |
| 1777986526 | 16.67° C | 78% | 1016.7 hPa | 0 mm | 0.45 m/s, 284° | 381 W/m² | - |
| 1777986224 | 15.56° C | 81% | 1016.8 hPa | 0 mm | 0.45 m/s, 282° | 331 W/m² | - |
| 1777985921 | 15° C | 82% | 1016.7 hPa | 0 mm | 0.45 m/s, 291° | 246 W/m² | - |
| 1777985619 | 14.44° C | 84% | 1016.6 hPa | 0 mm | 0 m/s | 211 W/m² | - |
| 1777985315 | 13.89° C | 84% | 1016.8 hPa | 0 mm | 0.45 m/s, 286° | 240 W/m² | - |
| 1777985012 | 13.89° C | 86% | 1016.4 hPa | 0 mm | 0 m/s | 229 W/m² | - |
| 1777984708 | 13.89° C | 87% | 1016.4 hPa | 0 mm | 0.45 m/s, 281° | 163 W/m² | - |
| 1777984404 | 13.89° C | 89% | 1016.4 hPa | 0 mm | 0 m/s | 142 W/m² | - |
| 1777984101 | 13.33° C | 91% | 1016.4 hPa | 0 mm | 0 m/s | 231 W/m² | - |
| 1777983798 | 12.78° C | 92% | 1016.3 hPa | 0 mm | 0 m/s | 159 W/m² | - |
| 1777983494 | 11.67° C | 98% | 1016.1 hPa | 0 mm | 0 m/s | 119 W/m² | - |
| 1777983192 | 11.11° C | 99% | 1016.2 hPa | 0 mm | 0 m/s | 104 W/m² | - |
| 1777982888 | 10.56° C | 99% | 1015.9 hPa | 0 mm | 0 m/s | 70 W/m² | - |
| 1777982584 | 10° C | 99% | 1016.2 hPa | 0 mm | 0 m/s | 76 W/m² | - |
| 1777982282 | 10° C | 99% | 1016.1 hPa | 0 mm | 0 m/s | 32 W/m² | - |
* Rain latest hour (hover to see other rain measurements)
** Current wind speed in m/s (hover to see current wind gust speed)